createdAt,value
2022-11-24T00:00:33.159Z,6.52
2022-11-24T00:05:34.422Z,6.61
2022-11-24T00:10:36.284Z,6.66
2022-11-24T00:15:37.822Z,6.69
2022-11-24T00:20:39.925Z,6.7
2022-11-24T00:25:41.950Z,6.76
2022-11-24T00:30:44.289Z,6.83
2022-11-24T00:35:45.780Z,6.85
2022-11-24T00:40:47.245Z,6.86
2022-11-24T00:45:48.979Z,6.88
2022-11-24T00:50:50.461Z,6.89
2022-11-24T00:55:52.063Z,6.88
2022-11-24T01:00:54.134Z,6.91
2022-11-24T01:36:04.724Z,6.96
2022-11-24T01:51:09.904Z,6.93
2022-11-24T01:56:11.293Z,6.93
2022-11-24T02:01:13.031Z,6.91
2022-11-24T02:06:15.042Z,6.88
2022-11-24T02:16:18.488Z,6.9
2022-11-24T02:21:20.041Z,6.88
2022-11-24T02:31:23.678Z,6.84
2022-11-24T02:36:25.218Z,6.84
2022-11-24T02:41:27.065Z,6.81
2022-11-24T02:46:28.648Z,6.85
2022-11-24T02:51:29.957Z,6.84
2022-11-24T02:56:32.035Z,6.78
2022-11-24T03:01:34.305Z,6.76
2022-11-24T03:06:35.609Z,6.78
2022-11-24T03:11:37.128Z,6.79
2022-11-24T03:16:39.116Z,6.76
2022-11-24T03:21:40.830Z,6.75
2022-11-24T03:26:42.667Z,6.76
2022-11-24T03:31:44.188Z,6.74
2022-11-24T03:36:46.166Z,6.72
2022-11-24T03:41:48.355Z,6.74
2022-11-24T03:46:50.059Z,6.74
2022-11-24T03:51:51.437Z,6.71
2022-11-24T03:56:53.221Z,6.74
2022-11-24T04:01:54.605Z,6.79
2022-11-24T04:06:56.492Z,6.79
2022-11-24T04:11:58.248Z,6.78
2022-11-24T04:17:00.096Z,6.81
2022-11-24T04:22:01.702Z,6.86
2022-11-24T04:27:03.138Z,6.83
2022-11-24T04:32:04.854Z,6.86
2022-11-24T04:37:06.449Z,6.92
2022-11-24T04:42:08.462Z,6.94
2022-11-24T04:47:09.905Z,6.93
2022-11-24T04:52:11.459Z,6.96
2022-11-24T04:57:12.850Z,7.02
2022-11-24T05:02:14.542Z,7.02
2022-11-24T05:07:18.621Z,7.04
2022-11-24T05:12:17.642Z,7.07
2022-11-24T05:17:19.415Z,7.09
2022-11-24T05:22:21.233Z,7.08
2022-11-24T05:27:23.375Z,7.11
2022-11-24T05:32:25.184Z,7.15
2022-11-24T05:37:26.571Z,7.08
2022-11-24T05:42:28.427Z,7.1
2022-11-24T05:47:30.513Z,7.14
2022-11-24T05:52:31.694Z,7.17
2022-11-24T05:57:33.848Z,7.16
2022-11-24T06:02:35.962Z,7.18
2022-11-24T06:07:37.171Z,7.18
2022-11-24T06:12:38.499Z,7.19
2022-11-24T06:17:39.927Z,7.23
2022-11-24T06:22:41.495Z,7.28
2022-11-24T06:27:43.525Z,7.31
2022-11-24T06:32:49.280Z,7.3
2022-11-24T06:37:47.197Z,7.33
2022-11-24T06:42:49.187Z,7.37
2022-11-24T06:47:51.436Z,7.39
2022-11-24T06:52:53.351Z,7.43
2022-11-24T06:57:55.016Z,7.49
2022-11-24T07:02:56.817Z,7.56
2022-11-24T07:07:58.556Z,7.55
2022-11-24T07:12:59.809Z,7.58
2022-11-24T07:18:01.405Z,7.66
2022-11-24T07:23:03.538Z,8.06
2022-11-24T07:28:05.067Z,8.46
2022-11-24T07:33:07.347Z,8.89
2022-11-24T07:38:08.733Z,9.49
2022-11-24T07:43:13.477Z,9.5
2022-11-24T07:48:12.235Z,9.91
2022-11-24T07:53:13.541Z,10.58
2022-11-24T07:58:15.265Z,10.59
2022-11-24T08:03:16.590Z,11.06
2022-11-24T08:08:18.542Z,11.55
2022-11-24T08:13:20.368Z,12.05
2022-11-24T08:18:22.113Z,12.46
2022-11-24T08:23:23.951Z,12.55
2022-11-24T08:28:25.422Z,13.22
2022-11-24T08:33:27.617Z,12.85
2022-11-24T08:38:28.801Z,13.16
2022-11-24T08:43:30.562Z,12.75
2022-11-24T08:48:32.300Z,12.34
2022-11-24T08:53:33.858Z,12.1
2022-11-24T08:58:35.838Z,11.87
2022-11-24T09:03:37.361Z,12.54
2022-11-24T09:08:39.195Z,13.34
2022-11-24T09:13:40.807Z,13.13
2022-11-24T09:18:42.962Z,13.19
2022-11-24T09:23:44.271Z,13.06
2022-11-24T09:28:46.141Z,13.57
2022-11-24T09:33:48.284Z,13.8
2022-11-24T09:38:49.655Z,14
2022-11-24T09:43:51.775Z,13.89
2022-11-24T09:48:53.331Z,14.07
2022-11-24T09:53:55.223Z,13.66
2022-11-24T09:58:56.838Z,13.04
2022-11-24T10:04:02.718Z,12.49
2022-11-24T10:09:00.286Z,12.26
2022-11-24T10:14:01.901Z,11.99
2022-11-24T10:19:03.845Z,11.87
2022-11-24T10:24:05.319Z,11.36
2022-11-24T10:29:06.836Z,10.76
2022-11-24T10:34:08.411Z,10.42
2022-11-24T10:39:09.892Z,10.18
2022-11-24T10:44:11.097Z,9.93
2022-11-24T10:49:12.892Z,9.8
2022-11-24T10:54:14.551Z,9.72
2022-11-24T10:59:16.212Z,9.66
2022-11-24T11:04:17.508Z,9.63
2022-11-24T11:09:18.780Z,9.66
2022-11-24T11:14:20.636Z,9.68
2022-11-24T11:19:47.140Z,9.64
2022-11-24T11:24:23.965Z,9.67
2022-11-24T11:34:30.269Z,9.75
2022-11-24T11:39:29.534Z,9.72
2022-11-24T11:44:31.317Z,9.67
2022-11-24T11:49:32.885Z,9.62
2022-11-24T11:54:35.227Z,9.6
2022-11-24T11:59:36.282Z,9.63
2022-11-24T12:04:37.618Z,9.68
2022-11-24T12:09:39.166Z,9.68
2022-11-24T12:14:40.859Z,9.77
2022-11-24T12:14:47.155Z,9.77
2022-11-24T12:19:48.426Z,9.85
2022-11-24T12:24:49.841Z,10.03
2022-11-24T12:29:51.839Z,10.05
2022-11-24T12:34:53.472Z,10.09
2022-11-24T12:39:54.660Z,10.04
2022-11-24T12:44:56.212Z,10.06
2022-11-24T12:49:58.036Z,10.07
2022-11-24T12:54:59.776Z,10.06
2022-11-24T13:00:01.962Z,10.05
2022-11-24T13:05:03.647Z,10.02
2022-11-24T13:10:05.111Z,9.97
2022-11-24T13:15:06.659Z,9.99
2022-11-24T13:20:08.084Z,9.99
2022-11-24T13:25:10.142Z,9.93
2022-11-24T13:30:11.908Z,9.93
2022-11-24T13:35:14.135Z,9.96
2022-11-24T13:40:16.022Z,9.91
2022-11-24T13:45:17.575Z,9.79
2022-11-24T13:50:19.155Z,9.77
2022-11-24T13:55:20.554Z,9.77
2022-11-24T14:00:22.248Z,9.68
2022-11-24T14:05:24.500Z,9.67
2022-11-24T14:10:26.316Z,9.64
2022-11-24T14:15:28.056Z,9.51
2022-11-24T14:20:30.219Z,9.42
2022-11-24T14:25:32.127Z,9.37
2022-11-24T14:30:33.406Z,9.27
2022-11-24T14:35:35.243Z,9.14
2022-11-24T14:40:36.873Z,9.07
2022-11-24T14:45:38.790Z,8.99
2022-11-24T14:50:40.161Z,8.87
2022-11-24T14:55:42.098Z,8.83
2022-11-24T15:00:43.971Z,8.79
2022-11-24T15:05:45.851Z,8.68
2022-11-24T15:10:47.344Z,8.55
2022-11-24T15:15:48.717Z,8.43
2022-11-24T15:20:50.251Z,8.37
2022-11-24T15:25:51.539Z,8.22
2022-11-24T15:30:52.962Z,8.1
2022-11-24T15:35:54.273Z,8.03
2022-11-24T16:06:03.944Z,7.66
2022-11-24T16:31:12.102Z,7.53
2022-11-24T16:36:13.641Z,7.35
2022-11-24T16:41:15.136Z,7.32
2022-11-24T16:51:18.274Z,7.4
2022-11-24T16:56:20.303Z,7.39
2022-11-24T17:01:22.242Z,7.41
2022-11-24T17:06:23.777Z,7.43
2022-11-24T17:11:25.125Z,7.39
2022-11-24T17:16:26.964Z,7.35
2022-11-24T17:21:28.262Z,7.38
2022-11-24T17:26:30.158Z,7.33
2022-11-24T17:31:32.121Z,7.28
2022-11-24T17:36:33.812Z,7.22
2022-11-24T17:41:35.027Z,7.23
2022-11-24T17:46:37.048Z,7.22
2022-11-24T17:51:39.211Z,7.18
2022-11-24T17:56:41.058Z,7.18
2022-11-24T18:01:42.668Z,7.17
2022-11-24T18:06:43.861Z,7.1
2022-11-24T18:11:45.212Z,7.06
2022-11-24T18:16:47.017Z,6.99
2022-11-24T18:21:48.652Z,6.85
2022-11-24T18:26:49.954Z,6.7
2022-11-24T18:31:51.376Z,6.64
2022-11-24T18:36:53.100Z,6.53
2022-11-24T18:41:54.783Z,6.42
2022-11-24T18:46:56.794Z,6.35
2022-11-24T18:51:58.687Z,6.33
2022-11-24T18:57:03.240Z,6.25
2022-11-24T19:02:01.543Z,6.14
2022-11-24T19:07:02.835Z,6.1
2022-11-24T19:12:04.820Z,6.1
2022-11-24T19:17:06.688Z,6.12
2022-11-24T19:22:08.625Z,6.05
2022-11-24T19:27:10.592Z,6.04
2022-11-24T19:32:12.344Z,6
2022-11-24T19:37:14.198Z,5.91
2022-11-24T19:42:15.333Z,5.85
2022-11-24T19:47:17.049Z,5.85
2022-11-24T19:52:18.769Z,5.8
2022-11-24T19:57:20.204Z,5.73
2022-11-24T20:02:21.614Z,5.65
2022-11-24T20:07:23.521Z,5.59
2022-11-24T20:12:25.474Z,5.51
2022-11-24T20:17:27.315Z,5.43
2022-11-24T20:22:28.491Z,5.36
2022-11-24T20:27:29.801Z,5.23
2022-11-24T20:32:31.714Z,5.07
2022-11-24T20:37:33.513Z,4.91
2022-11-24T20:42:34.870Z,4.83
2022-11-24T20:47:36.708Z,4.73
2022-11-24T20:52:38.864Z,4.64
2022-11-24T20:57:40.647Z,4.59
2022-11-24T21:02:42.688Z,4.48
2022-11-24T21:07:43.946Z,4.39
2022-11-24T21:12:45.496Z,4.32
2022-11-24T21:17:47.173Z,4.28
2022-11-24T21:22:49.331Z,4.23
2022-11-24T21:27:50.781Z,4.14
2022-11-24T21:32:52.674Z,4.09
2022-11-24T21:37:54.663Z,4.01
2022-11-24T21:42:56.025Z,3.92
2022-11-24T21:47:57.737Z,3.76
2022-11-24T21:53:03.278Z,3.7
2022-11-24T21:58:01.106Z,3.61
2022-11-24T22:03:02.285Z,3.53
2022-11-24T22:08:04.491Z,3.44
2022-11-24T22:13:06.130Z,3.37
2022-11-24T22:18:07.367Z,3.27
2022-11-24T22:23:09.194Z,3.17
2022-11-24T22:28:10.803Z,3.12
2022-11-24T22:33:12.554Z,3.06
2022-11-24T22:38:14.692Z,3.01
2022-11-24T22:43:20.180Z,2.97
2022-11-24T22:48:17.936Z,2.87
2022-11-24T22:53:20.157Z,2.86
2022-11-24T22:58:21.877Z,2.82
2022-11-24T23:13:27.249Z,2.59
2022-11-24T23:18:29.249Z,2.56
2022-11-24T23:23:31.118Z,2.49
2022-11-24T23:28:32.661Z,2.35
2022-11-24T23:33:34.483Z,2.34
2022-11-24T23:38:36.189Z,2.33
2022-11-24T23:43:38.008Z,2.27
2022-11-24T23:48:40.126Z,2.18
2022-11-24T23:53:42.281Z,2.16
2022-11-24T23:58:44.279Z,2.13
